Time;durP1;ratioP1;P1;durP2;ratioP2;P2;SDS_P1;SDS_P2;PMS_P1;PMS_P2;Temp;Humidity;BMP_temperature;BMP_pressure;BME280_temperature;BME280_humidity;BME280_pressure;Samples;Min_cycle;Max_cycle;Signal;HPM_P1;HPM_P2
2022/11/21 00:00:56;;;;;;;2.38;0.70;;;22.60;49.60;;;;;;5073042;28;20389;-83
2022/11/21 00:03:24;;;;;;;1.55;0.60;;;22.80;48.40;;;;;;5073153;28;20374;-80
2022/11/21 00:05:51;;;;;;;1.33;0.50;;;22.30;48.70;;;;;;5073033;28;20379;-80
2022/11/21 00:08:20;;;;;;;3.40;0.57;;;22.20;49.70;;;;;;5072934;28;20382;-80
2022/11/21 00:10:48;;;;;;;1.65;0.60;;;22.10;49.50;;;;;;5072828;28;20405;-82
2022/11/21 00:13:18;;;;;;;3.92;0.70;;;22.20;50.00;;;;;;5072611;28;20494;-81
2022/11/21 00:15:45;;;;;;;3.10;0.70;;;22.30;50.00;;;;;;5072480;28;20378;-80
2022/11/21 00:18:13;;;;;;;4.75;0.75;;;22.50;48.80;;;;;;5072790;28;20417;-81
2022/11/21 00:20:41;;;;;;;2.60;0.60;;;23.00;49.20;;;;;;5071402;28;20382;-80
2022/11/21 00:23:09;;;;;;;1.83;0.50;;;22.50;49.20;;;;;;5072588;28;20389;-81
2022/11/21 00:25:36;;;;;;;2.78;0.70;;;22.60;51.30;;;;;;5072433;28;20417;-81
2022/11/21 00:28:03;;;;;;;3.25;0.70;;;22.70;49.20;;;;;;5072194;28;20380;-80
2022/11/21 00:30:31;;;;;;;3.28;0.68;;;23.10;49.30;;;;;;5072341;28;20766;-80
2022/11/21 00:33:00;;;;;;;5.20;0.90;;;23.10;47.90;;;;;;5072326;28;20910;-80
2022/11/21 00:35:27;;;;;;;4.85;0.85;;;23.00;47.90;;;;;;5072138;28;20406;-80
2022/11/21 00:37:54;;;;;;;1.55;0.70;;;22.90;49.40;;;;;;5072189;28;20449;-81
2022/11/21 00:40:21;;;;;;;4.38;0.90;;;22.80;47.70;;;;;;5072073;28;20415;-81
2022/11/21 00:42:48;;;;;;;6.20;1.10;;;22.70;48.20;;;;;;5072132;28;20423;-81
2022/11/21 00:45:16;;;;;;;3.58;0.88;;;22.50;48.60;;;;;;5072168;28;20377;-80
2022/11/21 00:47:42;;;;;;;2.97;0.80;;;22.60;48.70;;;;;;5065568;28;20382;-82
2022/11/21 00:50:10;;;;;;;3.90;0.98;;;22.70;48.10;;;;;;5052379;28;20963;-86
2022/11/21 00:52:37;;;;;;;3.22;0.93;;;22.80;49.10;;;;;;5055279;28;20759;-81
2022/11/21 00:55:04;;;;;;;3.65;0.85;;;22.90;48.60;;;;;;5053842;28;20405;-81
2022/11/21 00:57:31;;;;;;;3.00;0.70;;;23.00;49.20;;;;;;5071540;28;20397;-82
2022/11/21 00:59:58;;;;;;;2.25;0.60;;;23.00;49.00;;;;;;5070142;28;20477;-81
2022/11/21 01:02:25;;;;;;;1.83;0.52;;;23.20;49.00;;;;;;5060597;28;20382;-83
2022/11/21 01:04:52;;;;;;;2.03;0.60;;;22.60;49.50;;;;;;5059828;28;20400;-80
2022/11/21 01:07:19;;;;;;;1.10;0.60;;;22.20;50.50;;;;;;5067428;28;21042;-81
2022/11/21 01:09:47;;;;;;;1.27;0.52;;;21.90;51.00;;;;;;5059085;28;20394;-80
2022/11/21 01:12:13;;;;;;;1.60;0.50;;;22.10;50.60;;;;;;5056062;28;20378;-79
2022/11/21 01:14:41;;;;;;;3.33;0.70;;;22.30;51.50;;;;;;5070299;28;20410;-79
2022/11/21 01:17:07;;;;;;;1.00;0.60;;;22.40;50.80;;;;;;5068438;28;20899;-79
2022/11/21 01:19:36;;;;;;;1.55;0.50;;;22.40;49.70;;;;;;5071349;28;20769;-79
2022/11/21 01:22:03;;;;;;;2.72;0.60;;;22.40;50.80;;;;;;5071246;28;20410;-80
2022/11/21 01:24:30;;;;;;;5.18;0.80;;;22.60;50.00;;;;;;5070564;28;20396;-79
2022/11/21 01:26:57;;;;;;;1.75;0.50;;;22.70;49.20;;;;;;5071019;28;20382;-80
2022/11/21 01:29:24;;;;;;;1.30;0.43;;;22.50;49.10;;;;;;5070664;28;20445;-79
2022/11/21 01:31:51;;;;;;;0.95;0.50;;;22.50;48.80;;;;;;5055032;28;20398;-79
2022/11/21 01:34:21;;;;;;;1.13;0.40;;;22.90;49.60;;;;;;5070261;28;20461;-80
2022/11/21 01:36:48;;;;;;;1.33;0.50;;;22.80;48.90;;;;;;5070470;28;20381;-80
2022/11/21 01:39:15;;;;;;;1.05;0.40;;;22.70;49.10;;;;;;5066693;28;20431;-80
2022/11/21 01:41:44;;;;;;;0.63;0.35;;;22.40;49.10;;;;;;5059482;28;20382;-79
2022/11/21 01:44:24;;;;;;;1.40;0.52;;;22.20;49.00;;;;;;5052096;28;20387;-79
2022/11/21 01:46:53;;;;;;;1.25;0.40;;;22.10;49.60;;;;;;5063184;28;20374;-78
2022/11/21 01:49:27;;;;;;;15.70;1.55;;;22.40;49.50;;;;;;5050756;28;20433;-78
2022/11/21 01:52:01;;;;;;;4.55;0.60;;;23.00;49.30;;;;;;5070181;28;20738;-79
2022/11/21 01:54:43;;;;;;;3.50;0.65;;;23.20;48.30;;;;;;5070589;28;20398;-80
2022/11/21 01:57:23;;;;;;;3.95;0.63;;;23.00;49.40;;;;;;5043651;28;20389;-80
2022/11/21 02:00:07;;;;;;;5.32;1.10;;;23.30;48.60;;;;;;5056658;28;20880;-79
2022/11/21 02:02:38;;;;;;;3.95;0.90;;;23.10;49.00;;;;;;5072098;28;20403;-81
2022/11/21 02:05:10;;;;;;;4.35;0.60;;;22.80;49.20;;;;;;5070079;28;20895;-79
2022/11/21 02:07:42;;;;;;;4.83;0.80;;;22.70;48.90;;;;;;5066684;28;20385;-79
2022/11/21 02:10:10;;;;;;;2.45;0.52;;;22.80;49.00;;;;;;5070401;28;20460;-80
2022/11/21 02:12:52;;;;;;;0.70;0.40;;;23.00;49.00;;;;;;5046116;28;20381;-80
2022/11/21 02:15:22;;;;;;;2.65;0.40;;;22.30;50.50;;;;;;5070317;28;20410;-79
2022/11/21 02:17:49;;;;;;;1.20;0.53;;;22.30;49.90;;;;;;5065598;28;20382;-80
2022/11/21 02:20:22;;;;;;;1.43;0.40;;;22.60;49.90;;;;;;5066234;28;20374;-80
2022/11/21 02:23:07;;;;;;;1.20;0.40;;;22.70;49.50;;;;;;5066261;28;20374;-80
2022/11/21 02:25:37;;;;;;;1.90;0.50;;;22.90;49.00;;;;;;5053137;28;20434;-80
2022/11/21 02:28:07;;;;;;;1.27;0.50;;;23.30;49.40;;;;;;5068662;28;20386;-80
2022/11/21 02:30:38;;;;;;;1.77;0.60;;;23.50;49.10;;;;;;5061891;28;20386;-81
2022/11/21 02:33:05;;;;;;;0.77;0.40;;;23.50;47.90;;;;;;5069393;28;20390;-80
2022/11/21 02:35:35;;;;;;;2.20;0.57;;;23.80;46.70;;;;;;5069961;28;20398;-81
2022/11/21 02:38:18;;;;;;;3.08;0.70;;;23.50;46.10;;;;;;5069004;28;20411;-80
2022/11/21 02:41:01;;;;;;;1.40;0.40;;;23.50;46.60;;;;;;5069063;28;20502;-80
2022/11/21 02:43:37;;;;;;;5.80;0.80;;;23.70;46.50;;;;;;5069345;28;20869;-83
2022/11/21 02:46:04;;;;;;;6.47;0.85;;;23.90;46.80;;;;;;5070140;28;20374;-80
2022/11/21 02:48:31;;;;;;;5.10;0.80;;;22.90;46.70;;;;;;5069768;28;20382;-80
2022/11/21 02:50:58;;;;;;;2.50;0.60;;;23.20;48.10;;;;;;5070074;28;20902;-80
2022/11/21 02:53:25;;;;;;;18.38;1.98;;;22.90;48.20;;;;;;5069673;28;20850;-78
2022/11/21 02:55:52;;;;;;;7.80;0.75;;;22.60;47.70;;;;;;5061079;28;20797;-79
2022/11/21 02:58:19;;;;;;;2.67;0.52;;;22.60;47.30;;;;;;5067968;28;20386;-79
2022/11/21 03:00:46;;;;;;;1.45;0.40;;;22.70;49.20;;;;;;5063417;28;20398;-80
2022/11/21 03:03:13;;;;;;;1.15;0.43;;;22.50;48.80;;;;;;5069976;28;20399;-80
2022/11/21 03:05:41;;;;;;;2.45;0.50;;;23.00;47.50;;;;;;5070114;28;20443;-82
2022/11/21 03:08:09;;;;;;;4.90;0.60;;;22.90;47.40;;;;;;5052498;28;20511;-79
2022/11/21 03:10:36;;;;;;;6.53;1.17;;;22.60;46.80;;;;;;5059165;28;20400;-80
2022/11/21 03:13:03;;;;;;;3.65;0.80;;;22.50;47.50;;;;;;5070115;28;20889;-80
2022/11/21 03:15:32;;;;;;;4.60;0.93;;;22.90;48.50;;;;;;5062711;28;20410;-79
2022/11/21 03:18:02;;;;;;;6.85;0.70;;;23.40;47.50;;;;;;5069809;28;20374;-80
2022/11/21 03:20:31;;;;;;;5.78;0.90;;;23.70;46.90;;;;;;5069596;28;20453;-80
2022/11/21 03:22:58;;;;;;;5.70;0.68;;;23.60;44.70;;;;;;5069082;28;20450;-81
2022/11/21 03:25:25;;;;;;;4.60;0.80;;;23.30;44.90;;;;;;5069253;28;20386;-80
2022/11/21 03:27:53;;;;;;;4.78;0.85;;;23.60;44.60;;;;;;5069580;28;20378;-81
2022/11/21 03:30:21;;;;;;;3.83;0.73;;;24.10;43.50;;;;;;5069534;28;20905;-81
2022/11/21 03:32:48;;;;;;;3.83;0.70;;;23.90;43.80;;;;;;5060142;28;20721;-79
2022/11/21 03:35:15;;;;;;;3.83;0.73;;;23.90;45.40;;;;;;5069488;28;20434;-81
2022/11/21 03:37:42;;;;;;;1.42;0.60;;;23.40;44.50;;;;;;5069157;28;20382;-79
2022/11/21 03:40:10;;;;;;;3.95;0.70;;;23.30;44.70;;;;;;5056328;28;20488;-79
2022/11/21 03:42:37;;;;;;;4.60;0.70;;;23.70;43.40;;;;;;5066737;28;20390;-79
2022/11/21 03:45:05;;;;;;;7.27;0.90;;;23.60;44.30;;;;;;5069459;28;20464;-82
2022/11/21 03:47:32;;;;;;;10.23;1.52;;;23.50;44.10;;;;;;5068741;28;20388;-80
2022/11/21 03:49:59;;;;;;;2.47;0.70;;;23.50;44.30;;;;;;5066147;28;20422;-81
2022/11/21 03:52:26;;;;;;;4.03;0.80;;;23.40;45.40;;;;;;5067657;28;20381;-80
2022/11/21 03:54:53;;;;;;;2.92;0.77;;;23.60;45.40;;;;;;5070889;28;20473;-80
2022/11/21 03:57:20;;;;;;;1.63;0.70;;;23.90;45.90;;;;;;5073207;28;20994;-83
2022/11/21 03:59:47;;;;;;;2.53;0.63;;;23.70;45.40;;;;;;5072861;28;20377;-79
2022/11/21 04:02:14;;;;;;;3.15;1.13;;;22.60;48.00;;;;;;5069338;28;20382;-83
2022/11/21 04:04:41;;;;;;;1.98;0.65;;;22.00;49.80;;;;;;5069019;28;20391;-80
2022/11/21 04:07:08;;;;;;;2.42;0.70;;;22.00;50.60;;;;;;5071433;28;20439;-80
2022/11/21 04:09:35;;;;;;;4.00;1.10;;;22.30;50.10;;;;;;5072383;28;20392;-80
2022/11/21 04:12:02;;;;;;;2.80;0.60;;;22.60;49.60;;;;;;5072701;28;20375;-81
2022/11/21 04:14:29;;;;;;;1.00;0.40;;;22.70;49.70;;;;;;5072805;28;20921;-80
2022/11/21 04:16:56;;;;;;;1.65;0.65;;;22.60;49.20;;;;;;5072463;28;20865;-80
2022/11/21 04:19:22;;;;;;;2.83;0.50;;;22.60;50.30;;;;;;5064799;28;20418;-80
2022/11/21 04:21:49;;;;;;;1.58;0.50;;;22.40;49.30;;;;;;5070108;28;20379;-81
2022/11/21 04:24:16;;;;;;;2.70;0.50;;;22.80;49.10;;;;;;5072561;28;20466;-80
2022/11/21 04:26:43;;;;;;;3.42;0.70;;;22.80;48.50;;;;;;5064558;28;20887;-80
2022/11/21 04:29:10;;;;;;;6.47;0.70;;;22.90;48.00;;;;;;5067501;28;20469;-81
2022/11/21 04:31:37;;;;;;;5.27;0.70;;;23.00;48.20;;;;;;5072804;28;20382;-80
2022/11/21 04:34:04;;;;;;;3.70;0.60;;;23.00;47.70;;;;;;5069106;28;20485;-83
2022/11/21 04:36:31;;;;;;;2.70;0.70;;;23.10;48.10;;;;;;5060921;28;20434;-82
2022/11/21 04:38:58;;;;;;;2.95;0.77;;;23.10;47.20;;;;;;5071065;28;20374;-87
2022/11/21 04:41:25;;;;;;;4.20;0.80;;;22.50;46.70;;;;;;5061375;28;20886;-84
2022/11/21 04:43:52;;;;;;;4.77;2.33;;;22.60;48.00;;;;;;5071962;28;20961;-85
2022/11/21 04:46:19;;;;;;;10.30;1.30;;;22.10;47.40;;;;;;5057251;28;20395;-81
2022/11/21 04:48:46;;;;;;;3.23;0.70;;;22.30;47.20;;;;;;5058963;28;20383;-81
2022/11/21 04:51:13;;;;;;;4.70;0.80;;;22.10;48.50;;;;;;5071919;28;20386;-81
2022/11/21 04:53:40;;;;;;;6.78;1.02;;;21.20;49.90;;;;;;5071566;28;20378;-81
2022/11/21 04:56:07;;;;;;;2.03;0.70;;;20.80;53.50;;;;;;5071868;28;20852;-80
2022/11/21 04:58:35;;;;;;;1.05;0.40;;;21.70;51.10;;;;;;5071758;28;20402;-80
2022/11/21 05:01:07;;;;;;;1.00;0.50;;;22.00;48.70;;;;;;5065958;28;20563;-81
2022/11/21 05:03:34;;;;;;;2.42;0.60;;;22.60;48.30;;;;;;5065580;28;20855;-82
2022/11/21 05:06:02;;;;;;;0.90;0.40;;;22.80;47.40;;;;;;5060869;28;20447;-85
2022/11/21 05:08:29;;;;;;;4.13;0.60;;;23.10;47.40;;;;;;5059419;28;20721;-83
2022/11/21 05:13:41;;;;;;;6.90;1.20;;;22.60;47.70;;;;;;5057318;28;20427;-82
2022/11/21 05:16:08;;;;;;;4.35;0.70;;;22.40;44.40;;;;;;5071722;28;20386;-83
2022/11/21 05:18:35;;;;;;;3.92;0.85;;;22.30;45.40;;;;;;5071385;28;20366;-82
2022/11/21 05:21:02;;;;;;;3.37;0.73;;;22.50;45.90;;;;;;5058669;28;20463;-83
2022/11/21 05:23:29;;;;;;;2.42;0.73;;;23.10;44.70;;;;;;5051426;28;20379;-83
2022/11/21 05:25:56;;;;;;;1.55;0.70;;;22.70;44.90;;;;;;5066816;28;20461;-83
2022/11/21 05:28:23;;;;;;;1.90;0.70;;;22.90;45.00;;;;;;5065890;28;20467;-84
2022/11/21 05:30:50;;;;;;;2.30;0.70;;;23.20;44.60;;;;;;5065102;28;20862;-83
2022/11/21 05:33:18;;;;;;;2.95;0.70;;;23.50;43.40;;;;;;5054960;28;20386;-81
2022/11/21 05:35:45;;;;;;;4.57;0.75;;;22.80;43.10;;;;;;5062832;28;20411;-81
2022/11/21 05:38:12;;;;;;;4.37;0.90;;;22.10;42.90;;;;;;5069513;28;20382;-82
2022/11/21 05:40:39;;;;;;;3.00;0.77;;;22.00;43.10;;;;;;5068778;28;20449;-82
2022/11/21 05:45:52;;;;;;;3.00;0.80;;;22.50;43.20;;;;;;5071313;28;20931;-81
2022/11/21 05:48:19;;;;;;;2.40;0.82;;;22.10;42.80;;;;;;5066846;28;20853;-82
2022/11/21 05:50:49;;;;;;;3.78;0.88;;;22.10;43.30;;;;;;5070899;28;20385;-81
2022/11/21 05:53:17;;;;;;;2.33;0.77;;;22.30;43.60;;;;;;5070700;28;20866;-81
2022/11/21 05:55:44;;;;;;;2.28;0.80;;;22.30;43.00;;;;;;5060030;28;20450;-81
2022/11/21 05:58:11;;;;;;;4.35;1.13;;;22.30;42.70;;;;;;5065590;28;20781;-82
2022/11/21 06:00:38;;;;;;;2.47;0.63;;;22.20;42.50;;;;;;5069030;28;20777;-82
2022/11/21 06:05:51;;;;;;;8.15;1.30;;;22.00;42.60;;;;;;5047390;28;20710;-86
2022/11/21 06:08:18;;;;;;;3.40;0.87;;;21.80;42.90;;;;;;5070457;28;20384;-82
2022/11/21 06:10:45;;;;;;;3.08;0.80;;;22.20;42.50;;;;;;5062192;28;20443;-81
2022/11/21 06:13:21;;;;;;;5.20;1.05;;;22.00;42.80;;;;;;5057571;28;20430;-81
2022/11/21 06:15:53;;;;;;;4.03;0.90;;;21.50;42.30;;;;;;5024728;28;20759;-84
2022/11/21 06:18:21;;;;;;;2.10;0.73;;;21.70;43.00;;;;;;5057650;28;20383;-81
2022/11/21 06:20:48;;;;;;;3.35;0.85;;;21.30;43.60;;;;;;5051578;28;20416;-80
2022/11/21 06:23:15;;;;;;;2.97;0.80;;;21.30;43.60;;;;;;5068906;28;20377;-82
2022/11/21 06:25:43;;;;;;;3.43;0.87;;;21.80;43.10;;;;;;5051005;28;20449;-81
2022/11/21 06:28:11;;;;;;;3.55;0.80;;;22.00;41.90;;;;;;5057441;28;20951;-82
2022/11/21 06:30:39;;;;;;;2.20;0.70;;;22.00;43.10;;;;;;5057619;28;20859;-84
2022/11/21 06:33:06;;;;;;;1.75;0.63;;;21.30;42.80;;;;;;5059158;28;20386;-79
2022/11/21 06:35:37;;;;;;;2.33;0.77;;;21.50;43.50;;;;;;5054385;28;20408;-83
2022/11/21 06:38:04;;;;;;;3.03;0.82;;;21.70;43.60;;;;;;5053451;28;20393;-81
2022/11/21 06:40:31;;;;;;;2.47;0.63;;;21.80;43.60;;;;;;5063230;28;20406;-83
2022/11/21 06:42:58;;;;;;;2.63;0.73;;;21.90;43.40;;;;;;5063796;28;20734;-80
2022/11/21 06:45:25;;;;;;;3.03;0.70;;;21.30;44.00;;;;;;5060245;28;20427;-80
2022/11/21 06:47:52;;;;;;;2.17;0.70;;;21.10;44.90;;;;;;5064035;28;20404;-83
2022/11/21 06:50:19;;;;;;;3.07;0.80;;;21.10;45.10;;;;;;5060013;28;20861;-81
2022/11/21 06:52:46;;;;;;;3.73;0.80;;;21.00;45.70;;;;;;5057615;28;20882;-81
2022/11/21 06:55:13;;;;;;;3.20;0.70;;;20.90;46.30;;;;;;5049224;28;20412;-83
2022/11/21 06:57:40;;;;;;;2.95;0.77;;;20.90;45.90;;;;;;5054472;28;20427;-83
2022/11/21 07:00:08;;;;;;;3.05;0.80;;;20.80;46.40;;;;;;5053661;28;20398;-81
2022/11/21 07:02:35;;;;;;;3.25;1.10;;;20.70;46.40;;;;;;5055579;28;20400;-80
2022/11/21 07:05:02;;;;;;;3.38;1.10;;;20.90;46.70;;;;;;5055218;28;20453;-83
2022/11/21 07:07:29;;;;;;;3.15;1.02;;;20.60;47.10;;;;;;5052656;28;20384;-80
2022/11/21 07:09:56;;;;;;;7.45;1.10;;;20.50;47.10;;;;;;5050408;28;20461;-81
2022/11/21 07:15:09;;;;;;;5.10;0.90;;;20.80;47.60;;;;;;5058851;28;20397;-82
2022/11/21 07:17:36;;;;;;;3.25;0.80;;;20.80;46.50;;;;;;5067847;28;20382;-84
2022/11/21 07:20:04;;;;;;;2.70;0.90;;;20.60;46.60;;;;;;5055966;28;20479;-83
2022/11/21 07:22:31;;;;;;;2.03;0.90;;;20.40;46.70;;;;;;5068667;28;20858;-81
2022/11/21 07:24:58;;;;;;;2.30;0.80;;;20.30;47.20;;;;;;5064520;28;20990;-83
2022/11/21 07:27:25;;;;;;;2.97;0.80;;;20.50;45.70;;;;;;5069868;28;20376;-82
2022/11/21 07:29:52;;;;;;;4.63;0.90;;;20.50;46.60;;;;;;5071193;28;20378;-83
2022/11/21 07:32:19;;;;;;;4.05;1.05;;;20.60;45.60;;;;;;5071084;28;20431;-82
2022/11/21 07:34:45;;;;;;;3.38;1.00;;;20.50;45.60;;;;;;5059092;28;20455;-85
2022/11/21 07:37:12;;;;;;;2.35;0.80;;;20.60;45.70;;;;;;5070489;28;20378;-84
2022/11/21 07:39:39;;;;;;;2.22;0.88;;;20.50;45.40;;;;;;5073403;28;20386;-84
2022/11/21 07:42:06;;;;;;;3.00;0.80;;;20.40;44.90;;;;;;5064701;28;20376;-83
2022/11/21 07:44:33;;;;;;;7.28;1.08;;;20.40;45.40;;;;;;5068088;28;20396;-83
2022/11/21 07:47:00;;;;;;;3.97;0.90;;;20.20;45.10;;;;;;5066241;28;20432;-82
2022/11/21 07:49:28;;;;;;;2.15;1.00;;;20.00;45.20;;;;;;5073402;28;20397;-85
2022/11/21 07:51:55;;;;;;;9.45;1.20;;;19.90;44.90;;;;;;5072416;28;20484;-83
2022/11/21 07:54:22;;;;;;;3.90;0.85;;;19.80;45.20;;;;;;5065146;28;20454;-83
2022/11/21 07:56:49;;;;;;;2.47;0.73;;;19.60;45.20;;;;;;5069452;28;21000;-84
2022/11/21 07:59:18;;;;;;;3.50;0.98;;;19.40;45.50;;;;;;5063398;28;20405;-80
2022/11/21 08:01:45;;;;;;;4.28;1.00;;;19.10;46.50;;;;;;5064933;28;20478;-84
2022/11/21 08:04:12;;;;;;;3.78;0.70;;;18.60;47.10;;;;;;5073213;28;20465;-80
2022/11/21 08:06:39;;;;;;;1.60;0.80;;;18.30;48.20;;;;;;5072385;28;20398;-81
2022/11/21 08:09:06;;;;;;;2.17;0.80;;;18.10;48.40;;;;;;5073475;28;20413;-79
2022/11/21 08:11:34;;;;;;;3.75;0.70;;;18.00;48.30;;;;;;5073243;28;20375;-80
2022/11/21 08:14:01;;;;;;;3.92;0.90;;;17.90;48.00;;;;;;5062757;28;20406;-82
2022/11/21 08:16:31;;;;;;;2.58;0.75;;;17.70;48.40;;;;;;5072967;28;20783;-81
2022/11/21 08:18:59;;;;;;;1.83;0.73;;;17.70;48.90;;;;;;5053044;28;20465;-81
2022/11/21 08:21:27;;;;;;;2.90;0.70;;;17.60;49.00;;;;;;5064164;28;20393;-77
2022/11/21 08:23:54;;;;;;;2.92;0.80;;;17.50;49.40;;;;;;5038548;28;20797;-81
2022/11/21 08:26:21;;;;;;;2.72;0.63;;;17.50;49.50;;;;;;5071510;28;20719;-81
2022/11/21 08:28:48;;;;;;;1.33;0.70;;;17.40;49.70;;;;;;5072732;28;20386;-82
2022/11/21 08:31:15;;;;;;;1.65;0.73;;;17.30;49.90;;;;;;5072574;28;20370;-82
2022/11/21 08:33:42;;;;;;;2.10;0.88;;;17.20;50.30;;;;;;5063039;28;20395;-82
2022/11/21 08:36:09;;;;;;;3.00;0.90;;;17.10;50.80;;;;;;5061905;28;20388;-84
2022/11/21 08:38:36;;;;;;;3.55;0.90;;;17.00;50.70;;;;;;5072999;28;20378;-81
2022/11/21 08:43:49;;;;;;;2.63;0.80;;;16.90;51.30;;;;;;5047259;28;20386;-80
2022/11/21 08:46:17;;;;;;;3.30;0.98;;;16.80;51.30;;;;;;5069486;28;20382;-82
2022/11/21 08:48:44;;;;;;;1.70;0.80;;;16.70;51.70;;;;;;5064794;28;20850;-76
2022/11/21 08:51:11;;;;;;;2.92;1.00;;;16.70;51.70;;;;;;5071919;28;20734;-84
2022/11/21 08:53:38;;;;;;;4.23;0.90;;;16.60;52.20;;;;;;5072636;28;20734;-81
2022/11/21 08:56:05;;;;;;;2.65;0.80;;;16.50;52.40;;;;;;5070865;28;20505;-84
2022/11/21 08:58:32;;;;;;;2.17;0.80;;;16.40;52.40;;;;;;5063545;28;20393;-83
2022/11/21 09:01:00;;;;;;;3.97;0.90;;;16.40;52.90;;;;;;5066388;28;20743;-83
2022/11/21 09:03:27;;;;;;;2.95;0.70;;;16.40;53.20;;;;;;5064624;28;20392;-83
2022/11/21 09:05:56;;;;;;;3.75;0.90;;;16.30;53.20;;;;;;5070135;28;20371;-84
2022/11/21 09:08:23;;;;;;;3.38;1.00;;;16.30;53.60;;;;;;5072231;28;20394;-79
2022/11/21 09:10:50;;;;;;;2.85;0.73;;;16.20;53.50;;;;;;5067869;28;20844;-81
2022/11/21 09:13:17;;;;;;;2.33;0.82;;;16.20;53.60;;;;;;5056521;28;20449;-77
2022/11/21 09:18:30;;;;;;;2.73;0.80;;;16.10;54.00;;;;;;5064803;28;20381;-85
2022/11/21 09:20:57;;;;;;;1.88;0.90;;;16.10;54.00;;;;;;5071658;28;20861;-82
2022/11/21 09:23:24;;;;;;;2.67;1.00;;;16.00;54.20;;;;;;5062810;28;20804;-79
2022/11/21 09:25:51;;;;;;;2.30;0.75;;;16.00;53.60;;;;;;5066475;28;20669;-80
2022/11/21 09:28:18;;;;;;;2.63;0.90;;;15.90;54.30;;;;;;5063241;28;20395;-81
2022/11/21 09:30:45;;;;;;;3.72;0.90;;;15.90;54.40;;;;;;5068813;28;20477;-85
2022/11/21 09:33:15;;;;;;;2.03;0.73;;;15.80;54.50;;;;;;5065028;28;20421;-81
2022/11/21 09:35:42;;;;;;;2.60;0.80;;;15.80;54.30;;;;;;5064731;28;20407;-82
2022/11/21 09:38:10;;;;;;;1.63;0.80;;;15.80;54.90;;;;;;5070759;28;20838;-81
2022/11/21 09:40:39;;;;;;;1.50;0.88;;;15.80;54.60;;;;;;5057109;28;21016;-80
2022/11/21 09:43:27;;;;;;;2.00;0.80;;;15.70;54.90;;;;;;5069411;28;20416;-83
2022/11/21 09:46:14;;;;;;;2.03;0.90;;;15.70;55.10;;;;;;5064603;28;21160;-79
2022/11/21 09:48:58;;;;;;;2.40;0.90;;;15.70;55.40;;;;;;5069322;28;20439;-80
2022/11/21 09:51:28;;;;;;;2.60;0.80;;;15.60;55.40;;;;;;5064891;28;20382;-81
2022/11/21 09:54:11;;;;;;;2.97;0.90;;;15.50;55.80;;;;;;5057256;28;20414;-85
2022/11/21 09:56:43;;;;;;;3.58;0.98;;;15.50;56.40;;;;;;5060853;28;20428;-82
2022/11/21 09:59:27;;;;;;;2.27;0.90;;;15.50;56.40;;;;;;5058893;28;20460;-84
2022/11/21 10:01:54;;;;;;;4.53;0.80;;;15.40;56.90;;;;;;5055286;28;20386;-82
2022/11/21 10:04:21;;;;;;;2.30;0.77;;;15.40;57.20;;;;;;5070057;28;20379;-81
2022/11/21 10:06:57;;;;;;;2.67;0.80;;;15.40;56.60;;;;;;5056565;28;20390;-80
2022/11/21 10:10:00;;;;;;;2.15;0.80;;;15.50;57.10;;;;;;5062332;28;20378;-82
2022/11/21 10:13:04;;;;;;;2.45;0.90;;;15.50;56.50;;;;;;5067715;28;20784;-82
2022/11/21 10:16:08;;;;;;;2.53;0.65;;;15.50;56.50;;;;;;5055718;28;20423;-81
2022/11/21 10:19:00;;;;;;;3.13;1.10;;;15.40;56.70;;;;;;5059279;28;20373;-83
2022/11/21 10:22:02;;;;;;;2.03;0.85;;;15.40;56.90;;;;;;5054489;28;20459;-80
2022/11/21 10:24:48;;;;;;;2.43;0.83;;;15.30;57.60;;;;;;5063355;28;20381;-80
2022/11/21 10:27:21;;;;;;;1.70;0.60;;;15.30;57.20;;;;;;5066325;28;20965;-87
2022/11/21 10:29:59;;;;;;;2.63;0.90;;;15.30;57.00;;;;;;5054554;28;20393;-80
2022/11/21 10:32:28;;;;;;;2.50;0.85;;;15.30;56.80;;;;;;5066774;28;20381;-81
2022/11/21 10:35:13;;;;;;;3.90;0.80;;;15.20;56.80;;;;;;5055861;28;20398;-82
2022/11/21 10:37:47;;;;;;;3.70;0.80;;;15.30;56.60;;;;;;5053528;28;20392;-82
2022/11/21 10:40:27;;;;;;;2.35;0.80;;;15.30;56.80;;;;;;5065521;28;20413;-77
2022/11/21 10:45:58;;;;;;;2.38;0.70;;;15.20;57.00;;;;;;5057887;28;20462;-82
2022/11/21 10:48:25;;;;;;;2.53;0.82;;;15.20;57.60;;;;;;5056477;28;20389;-81
2022/11/21 10:51:13;;;;;;;1.92;0.80;;;15.20;58.30;;;;;;5070302;28;20899;-79
2022/11/21 10:56:27;;;;;;;3.40;0.88;;;15.00;57.70;;;;;;5059122;28;20836;-83
2022/11/21 10:59:01;;;;;;;3.00;0.80;;;15.00;57.90;;;;;;5062715;28;20993;-82
2022/11/21 11:01:32;;;;;;;1.80;0.80;;;15.00;57.80;;;;;;5047179;28;20380;-81
2022/11/21 11:04:12;;;;;;;2.72;0.80;;;15.00;57.50;;;;;;5062596;28;20511;-82
2022/11/21 11:06:45;;;;;;;2.47;0.70;;;15.00;57.80;;;;;;5070738;28;20379;-83
2022/11/21 11:09:29;;;;;;;1.67;0.88;;;15.00;57.60;;;;;;5068330;28;20464;-77
2022/11/21 11:12:19;;;;;;;1.80;0.65;;;14.90;57.70;;;;;;5071132;28;20416;-82
2022/11/21 11:14:55;;;;;;;2.00;0.80;;;14.90;57.60;;;;;;5074260;28;20463;-82
2022/11/21 11:17:30;;;;;;;2.22;0.80;;;15.00;57.60;;;;;;5074412;28;20377;-81
2022/11/21 11:20:06;;;;;;;1.53;0.73;;;15.10;57.50;;;;;;5073491;28;20390;-80
2022/11/21 11:22:33;;;;;;;2.08;0.80;;;15.10;57.60;;;;;;5072557;28;20703;-82
2022/11/21 11:25:04;;;;;;;2.27;0.90;;;15.00;57.70;;;;;;5064788;28;20389;-81
2022/11/21 11:27:31;;;;;;;1.98;0.80;;;15.00;57.90;;;;;;5069840;28;20398;-78
2022/11/21 11:30:06;;;;;;;3.00;0.80;;;15.10;58.10;;;;;;5057622;28;20391;-78
2022/11/21 11:32:40;;;;;;;3.47;0.70;;;15.10;58.00;;;;;;5057942;28;20429;-81
2022/11/21 11:35:13;;;;;;;3.03;1.00;;;15.10;58.30;;;;;;5048400;28;20762;-76
2022/11/21 11:37:41;;;;;;;1.80;0.73;;;15.00;58.90;;;;;;5065132;28;20445;-80
2022/11/21 11:40:35;;;;;;;1.83;0.60;;;15.00;59.30;;;;;;5060204;28;20386;-77
2022/11/21 11:49:24;;;;;;;1.50;0.60;;;14.50;64.20;;;;;;5074036;28;20892;-80
2022/11/21 11:52:00;;;;;;;2.60;0.80;;;14.30;65.70;;;;;;5040751;28;20644;-77
2022/11/21 11:54:33;;;;;;;2.08;0.43;;;14.00;67.00;;;;;;5066234;28;20461;-75
2022/11/21 11:57:03;;;;;;;1.27;0.50;;;13.70;68.00;;;;;;5066979;28;20518;-79
2022/11/21 11:59:40;;;;;;;1.10;0.43;;;13.50;68.80;;;;;;5064611;28;20402;-78
2022/11/21 12:02:22;;;;;;;2.08;0.50;;;13.30;69.20;;;;;;5058669;28;20389;-77
2022/11/21 12:05:14;;;;;;;0.80;0.40;;;13.20;69.60;;;;;;5061414;28;20467;-79
2022/11/21 12:07:47;;;;;;;0.87;0.50;;;13.10;70.10;;;;;;5053825;28;20435;-80
2022/11/21 12:10:23;;;;;;;0.98;0.50;;;13.10;70.50;;;;;;5072253;28;20382;-79
2022/11/21 12:13:18;;;;;;;2.00;0.50;;;13.10;69.70;;;;;;5062271;28;20374;-78
2022/11/21 12:15:51;;;;;;;1.13;0.50;;;13.20;69.80;;;;;;5065086;28;20404;-78
2022/11/21 12:18:21;;;;;;;2.15;0.70;;;13.10;70.10;;;;;;5057997;28;20395;-77
2022/11/21 12:21:15;;;;;;;1.70;0.60;;;13.10;70.40;;;;;;5071358;28;20429;-76
2022/11/21 12:23:45;;;;;;;1.50;0.50;;;12.90;71.40;;;;;;5046077;28;20476;-77
2022/11/21 12:26:31;;;;;;;1.85;0.50;;;12.80;72.10;;;;;;5058123;28;20872;-76
2022/11/21 12:29:16;;;;;;;0.70;0.47;;;12.70;72.70;;;;;;5062672;28;20396;-76
2022/11/21 12:32:04;;;;;;;2.00;0.50;;;12.70;73.10;;;;;;5048794;28;20390;-82
2022/11/21 12:35:15;;;;;;;2.43;0.50;;;12.50;73.60;;;;;;5058569;28;20403;-76
2022/11/21 12:38:26;;;;;;;1.02;0.50;;;12.50;74.00;;;;;;5052906;28;20382;-77
2022/11/21 12:43:59;;;;;;;2.50;0.65;;;12.30;75.00;;;;;;4999077;28;20457;-79
2022/11/21 12:46:54;;;;;;;1.25;0.60;;;12.20;75.50;;;;;;5008722;28;20402;-79
2022/11/21 12:55:59;;;;;;;1.58;0.80;;;12.20;76.20;;;;;;4931929;29;20425;-80
2022/11/21 12:58:37;;;;;;;1.70;0.88;;;12.20;76.80;;;;;;4932257;29;20463;-83
2022/11/21 13:01:08;;;;;;;2.22;0.60;;;12.20;75.90;;;;;;4932194;29;20429;-79
2022/11/21 13:03:39;;;;;;;2.00;0.60;;;12.30;75.50;;;;;;4932337;29;21006;-83
2022/11/21 13:06:12;;;;;;;1.58;0.50;;;12.40;74.80;;;;;;4937044;29;20410;-78
2022/11/21 13:08:40;;;;;;;1.40;0.50;;;12.50;74.00;;;;;;4931962;29;20404;-83
2022/11/21 13:14:22;;;;;;;1.95;0.50;;;12.70;72.40;;;;;;4931213;29;20925;-84
2022/11/21 13:17:21;;;;;;;1.98;0.50;;;12.80;71.70;;;;;;4918326;28;20821;-83
2022/11/21 13:20:14;;;;;;;1.90;0.50;;;12.90;71.10;;;;;;4951248;29;20403;-82
2022/11/21 13:22:41;;;;;;;1.63;0.40;;;12.90;71.10;;;;;;4951056;29;20394;-80
2022/11/21 13:25:30;;;;;;;1.35;0.50;;;12.90;71.30;;;;;;4950944;28;20795;-82
2022/11/21 13:28:18;;;;;;;0.80;0.40;;;12.90;71.50;;;;;;4950446;28;20404;-83
2022/11/21 13:30:53;;;;;;;1.00;0.50;;;12.80;71.60;;;;;;4950779;28;20400;-82
2022/11/21 13:33:36;;;;;;;1.85;0.55;;;12.80;71.80;;;;;;4929771;29;20474;-83
2022/11/21 13:36:23;;;;;;;1.25;0.40;;;12.80;72.30;;;;;;4931502;29;20454;-80
2022/11/21 13:38:51;;;;;;;1.85;0.40;;;12.70;71.60;;;;;;4931425;29;20438;-80
2022/11/21 13:44:33;;;;;;;0.88;0.50;;;12.70;72.30;;;;;;4933924;29;20401;-79
2022/11/21 13:47:02;;;;;;;0.70;0.40;;;12.60;72.50;;;;;;4926410;29;20406;-78
2022/11/21 13:50:10;;;;;;;0.85;0.40;;;12.50;73.20;;;;;;4933751;29;20449;-80